• Join FlightAware (Why Join?)
  • Login
  • US Flag 
02:54PM EDT


 

Airport Tracker/Info


-or-


 

Live Flight TrackerFlight Track Log ✈ EJA667 ✈ 29-Apr-2013 ✈ KAVL - KDVK

Flight Track Log - Related Links

Times and Time Zones

All times are in EDT time to prevent confusion due to time zone crossing. See the EJA667 flight status page for this flight to view local times or setup timezone preferences in your user account.

Time Position Orientation Groundspeed Altitude Reporting Facility
EDT Latitude Longitude Course Direction KTS MPH feet Rate Location/Type
04:01PM 35.3539 -82.4981 323° Northwest 211 243 8,100  Level Atlanta Center
04:02PM 35.3800 -82.4214 67° East 188 216 9,900 2,400 Climbing Atlanta Center
04:03PM 35.4656 -82.4297 355° North 220 253 12,900 3,000 Climbing Atlanta Center
04:04PM 35.5311 -82.4947 321° Northwest 261 300 16,000 2,820 Climbing Atlanta Center
04:05PM 35.5967 -82.5678 318° Northwest 292 336 18,600 2,520 Climbing Atlanta Center
04:06PM 35.7782 -83.0397 302° West  Level FlightAware Approximate
04:06PM 35.6600 -82.6331 320° Northwest 305 351 21,100  Level Atlanta Center
04:07PM 35.8482 -83.1101 323° Northwest  Level FlightAware Approximate
04:07PM 35.7297 -82.7111 318° Northwest 326 375 22,800  Level Atlanta Center
04:08PM 35.8100 -82.7969 319° Northwest 353 406 23,100 600 Climbing Atlanta Center
04:09PM 35.8900 -82.8828 319° Northwest 378 435 24,000 420 Climbing Atlanta Center
04:10PM 35.9744 -82.9764 318° Northwest 394 453 24,000  Level Atlanta Center
04:11PM 36.0586 -83.0653 320° Northwest 399 459 24,000  Level Atlanta Center
04:12PM 36.1406 -83.1569 318° Northwest 399 459 24,000  Level Atlanta Center
04:13PM 36.2183 -83.2461 317° Northwest 387 445 24,000  Level Atlanta Center
04:14PM 36.3003 -83.3328 320° Northwest 387 445 24,000  Level Atlanta Center
04:16PM 36.3958 -83.4361 319° Northwest 382 440 24,000  Level Indianapolis Center
04:17PM 36.4753 -83.5236 318° Northwest 381 438 24,000  Level Indianapolis Center
04:18PM 36.5697 -83.6286 318° Northwest 384 442 24,000  Level Indianapolis Center
04:19PM 36.6508 -83.7186 318° Northwest 387 445 24,000 -540 Level Indianapolis Center
04:20PM 36.7300 -83.8058 319° Northwest 382 440 23,000 -1,740 Descending Indianapolis Center
04:21PM 36.8078 -83.8947 318° Northwest 377 434 20,500 -2,460 Descending Indianapolis Center
04:22PM 36.8897 -83.9853 319° Northwest 388 447 18,000 -2,400 Descending Indianapolis Center
04:23PM 36.9658 -84.0728 317° Northwest 374 430 15,600 -2,640 Descending Indianapolis Center
04:24PM 37.0533 -84.1706 318° Northwest 363 418 12,600 -2,700 Descending Indianapolis Center
04:25PM 37.1236 -84.2483 319° Northwest 345 397 10,100 -2,460 Descending Indianapolis Center
04:26PM 37.1817 -84.3153 317° Northwest 298 343 7,600 -2,220 Descending Indianapolis Center
04:27PM 37.2358 -84.3769 318° Northwest 273 314 5,600 -1,740 Descending Indianapolis Center
04:28PM 37.2869 -84.4356 318° Northwest 255 293 4,100 -780 Descending Indianapolis Center
04:29PM 37.3469 -84.4764 332° Northwest 243 280 4,000 -540 Descending Indianapolis Center
04:30PM 37.4175 -84.5233 332° Northwest 245 282 3,000 -540 Descending Indianapolis Center
04:31PM 37.4711 -84.5544 335° Northwest 230 265 3,000 -60 Level Indianapolis Center
04:32PM 37.5114 -84.5983 319° Northwest 216 249 2,900 -120 Descending Indianapolis Center
04:34PM 37.5559 -84.7134 322° Northwest  Level Estimated
04:41PM 37.5667 -84.7667 302° West  Level FlightAware Approximate
04:42PM 37.5776 -84.7695 302° West  Level Estimated
04:43PM 37.5776 -84.7695 302° West  Level Estimated
04:44PM 37.5776 -84.7695 302° West  Level Estimated